sensor_id;sensor_type;location;lat;lon;timestamp;P1;durP1;ratioP1;P2;durP2;ratioP2
74630;SDS011;63138;55.082;38.804;2023-09-18T00:01:08;16.65;;;11.00;;
74630;SDS011;63138;55.082;38.804;2023-09-18T00:03:34;19.27;;;11.63;;
74630;SDS011;63138;55.082;38.804;2023-09-18T00:05:59;18.77;;;11.82;;
74630;SDS011;63138;55.082;38.804;2023-09-18T00:08:25;21.00;;;12.50;;
74630;SDS011;63138;55.082;38.804;2023-09-18T00:10:54;20.10;;;11.80;;
74630;SDS011;63138;55.082;38.804;2023-09-18T00:13:21;20.17;;;11.52;;
74630;SDS011;63138;55.082;38.804;2023-09-18T00:15:48;18.92;;;12.32;;
74630;SDS011;63138;55.082;38.804;2023-09-18T00:18:14;19.27;;;11.93;;
74630;SDS011;63138;55.082;38.804;2023-09-18T00:20:41;21.70;;;12.73;;
74630;SDS011;63138;55.082;38.804;2023-09-18T00:23:08;19.60;;;12.43;;
74630;SDS011;63138;55.082;38.804;2023-09-18T00:25:34;21.50;;;12.15;;
74630;SDS011;63138;55.082;38.804;2023-09-18T00:28:00;20.70;;;12.57;;
74630;SDS011;63138;55.082;38.804;2023-09-18T00:30:26;19.80;;;10.83;;
74630;SDS011;63138;55.082;38.804;2023-09-18T00:32:52;18.20;;;11.63;;
74630;SDS011;63138;55.082;38.804;2023-09-18T00:35:18;20.52;;;11.27;;
74630;SDS011;63138;55.082;38.804;2023-09-18T00:37:44;17.43;;;11.43;;
74630;SDS011;63138;55.082;38.804;2023-09-18T00:40:10;18.38;;;11.20;;
74630;SDS011;63138;55.082;38.804;2023-09-18T00:42:36;20.73;;;12.75;;
74630;SDS011;63138;55.082;38.804;2023-09-18T00:45:02;25.63;;;12.33;;
74630;SDS011;63138;55.082;38.804;2023-09-18T00:47:29;25.13;;;12.65;;
74630;SDS011;63138;55.082;38.804;2023-09-18T00:49:55;20.23;;;12.45;;
74630;SDS011;63138;55.082;38.804;2023-09-18T00:52:21;20.30;;;12.57;;
74630;SDS011;63138;55.082;38.804;2023-09-18T00:54:49;20.63;;;12.00;;
74630;SDS011;63138;55.082;38.804;2023-09-18T00:57:15;20.73;;;11.35;;
74630;SDS011;63138;55.082;38.804;2023-09-18T00:59:42;19.75;;;11.95;;
74630;SDS011;63138;55.082;38.804;2023-09-18T01:02:07;19.50;;;11.73;;
74630;SDS011;63138;55.082;38.804;2023-09-18T01:04:34;21.13;;;11.77;;
74630;SDS011;63138;55.082;38.804;2023-09-18T01:07:00;18.23;;;11.27;;
74630;SDS011;63138;55.082;38.804;2023-09-18T01:09:30;22.55;;;12.27;;
74630;SDS011;63138;55.082;38.804;2023-09-18T01:17:41;20.60;;;12.40;;
74630;SDS011;63138;55.082;38.804;2023-09-18T01:20:09;19.10;;;12.07;;
74630;SDS011;63138;55.082;38.804;2023-09-18T01:22:36;22.95;;;13.57;;
74630;SDS011;63138;55.082;38.804;2023-09-18T01:25:02;23.05;;;13.48;;
74630;SDS011;63138;55.082;38.804;2023-09-18T01:27:29;18.93;;;12.47;;
74630;SDS011;63138;55.082;38.804;2023-09-18T01:29:54;22.52;;;12.40;;
74630;SDS011;63138;55.082;38.804;2023-09-18T01:32:21;22.40;;;13.05;;
74630;SDS011;63138;55.082;38.804;2023-09-18T01:34:52;20.90;;;12.90;;
74630;SDS011;63138;55.082;38.804;2023-09-18T01:37:21;21.48;;;13.85;;
74630;SDS011;63138;55.082;38.804;2023-09-18T01:39:51;19.15;;;11.32;;
74630;SDS011;63138;55.082;38.804;2023-09-18T01:42:17;17.95;;;10.70;;
74630;SDS011;63138;55.082;38.804;2023-09-18T01:44:44;24.25;;;14.30;;
74630;SDS011;63138;55.082;38.804;2023-09-18T01:47:11;24.87;;;13.47;;
74630;SDS011;63138;55.082;38.804;2023-09-18T01:49:39;25.55;;;14.50;;
74630;SDS011;63138;55.082;38.804;2023-09-18T01:52:06;21.65;;;13.02;;
74630;SDS011;63138;55.082;38.804;2023-09-18T01:54:33;22.48;;;13.43;;
74630;SDS011;63138;55.082;38.804;2023-09-18T01:57:01;28.80;;;16.08;;
74630;SDS011;63138;55.082;38.804;2023-09-18T01:59:27;25.93;;;15.10;;
74630;SDS011;63138;55.082;38.804;2023-09-18T02:01:54;25.70;;;14.50;;
74630;SDS011;63138;55.082;38.804;2023-09-18T02:04:21;24.98;;;14.55;;
74630;SDS011;63138;55.082;38.804;2023-09-18T02:06:47;26.00;;;14.23;;
74630;SDS011;63138;55.082;38.804;2023-09-18T02:09:15;25.02;;;15.15;;
74630;SDS011;63138;55.082;38.804;2023-09-18T02:11:43;25.80;;;14.53;;
74630;SDS011;63138;55.082;38.804;2023-09-18T02:14:09;25.70;;;14.60;;
74630;SDS011;63138;55.082;38.804;2023-09-18T02:16:37;25.63;;;14.60;;
74630;SDS011;63138;55.082;38.804;2023-09-18T02:19:06;25.88;;;13.10;;
74630;SDS011;63138;55.082;38.804;2023-09-18T02:21:36;27.02;;;15.45;;
74630;SDS011;63138;55.082;38.804;2023-09-18T02:24:02;23.43;;;14.50;;
74630;SDS011;63138;55.082;38.804;2023-09-18T02:26:29;23.98;;;14.60;;
74630;SDS011;63138;55.082;38.804;2023-09-18T02:28:57;29.60;;;15.45;;
74630;SDS011;63138;55.082;38.804;2023-09-18T02:31:24;25.00;;;13.40;;
74630;SDS011;63138;55.082;38.804;2023-09-18T02:33:50;27.40;;;15.40;;
74630;SDS011;63138;55.082;38.804;2023-09-18T02:36:16;24.92;;;14.30;;
74630;SDS011;63138;55.082;38.804;2023-09-18T02:38:42;27.37;;;15.13;;
74630;SDS011;63138;55.082;38.804;2023-09-18T02:41:08;26.13;;;15.13;;
74630;SDS011;63138;55.082;38.804;2023-09-18T02:43:34;28.25;;;16.65;;
74630;SDS011;63138;55.082;38.804;2023-09-18T02:46:03;25.85;;;15.38;;
74630;SDS011;63138;55.082;38.804;2023-09-18T02:48:31;26.83;;;15.88;;
74630;SDS011;63138;55.082;38.804;2023-09-18T02:50:57;25.17;;;14.93;;
74630;SDS011;63138;55.082;38.804;2023-09-18T02:53:27;31.13;;;16.33;;
74630;SDS011;63138;55.082;38.804;2023-09-18T02:55:55;25.73;;;14.75;;
74630;SDS011;63138;55.082;38.804;2023-09-18T02:58:22;27.80;;;15.25;;
74630;SDS011;63138;55.082;38.804;2023-09-18T03:00:51;25.27;;;14.68;;
74630;SDS011;63138;55.082;38.804;2023-09-18T03:03:21;25.90;;;14.95;;
74630;SDS011;63138;55.082;38.804;2023-09-18T03:05:47;25.97;;;15.77;;
74630;SDS011;63138;55.082;38.804;2023-09-18T03:08:13;26.48;;;15.70;;
74630;SDS011;63138;55.082;38.804;2023-09-18T03:10:41;26.97;;;14.43;;
74630;SDS011;63138;55.082;38.804;2023-09-18T03:13:09;26.35;;;14.75;;
74630;SDS011;63138;55.082;38.804;2023-09-18T03:15:35;25.73;;;13.75;;
74630;SDS011;63138;55.082;38.804;2023-09-18T03:18:03;23.08;;;13.02;;
74630;SDS011;63138;55.082;38.804;2023-09-18T03:20:30;25.17;;;13.63;;
74630;SDS011;63138;55.082;38.804;2023-09-18T03:22:57;25.43;;;13.60;;
74630;SDS011;63138;55.082;38.804;2023-09-18T03:25:24;20.67;;;11.85;;
74630;SDS011;63138;55.082;38.804;2023-09-18T03:27:54;22.70;;;13.90;;
74630;SDS011;63138;55.082;38.804;2023-09-18T03:30:24;23.10;;;13.32;;
74630;SDS011;63138;55.082;38.804;2023-09-18T03:32:50;21.67;;;13.35;;
74630;SDS011;63138;55.082;38.804;2023-09-18T03:35:18;23.57;;;14.03;;
74630;SDS011;63138;55.082;38.804;2023-09-18T03:37:49;20.40;;;12.48;;
74630;SDS011;63138;55.082;38.804;2023-09-18T03:40:17;21.73;;;13.73;;
74630;SDS011;63138;55.082;38.804;2023-09-18T03:42:45;22.35;;;13.80;;
74630;SDS011;63138;55.082;38.804;2023-09-18T03:45:12;22.13;;;14.02;;
74630;SDS011;63138;55.082;38.804;2023-09-18T03:47:39;21.83;;;13.73;;
74630;SDS011;63138;55.082;38.804;2023-09-18T03:50:06;23.48;;;13.02;;
74630;SDS011;63138;55.082;38.804;2023-09-18T03:52:33;19.55;;;12.35;;
74630;SDS011;63138;55.082;38.804;2023-09-18T03:54:59;24.80;;;13.45;;
74630;SDS011;63138;55.082;38.804;2023-09-18T03:57:24;23.77;;;13.27;;
74630;SDS011;63138;55.082;38.804;2023-09-18T03:59:50;24.63;;;13.80;;
74630;SDS011;63138;55.082;38.804;2023-09-18T04:02:16;21.50;;;12.23;;
74630;SDS011;63138;55.082;38.804;2023-09-18T04:04:42;24.88;;;12.93;;
74630;SDS011;63138;55.082;38.804;2023-09-18T04:07:08;18.73;;;11.80;;
74630;SDS011;63138;55.082;38.804;2023-09-18T04:09:34;23.75;;;13.23;;
74630;SDS011;63138;55.082;38.804;2023-09-18T04:12:01;21.48;;;13.25;;
74630;SDS011;63138;55.082;38.804;2023-09-18T04:14:28;21.35;;;12.23;;
74630;SDS011;63138;55.082;38.804;2023-09-18T04:16:53;21.57;;;11.83;;
74630;SDS011;63138;55.082;38.804;2023-09-18T04:19:19;20.08;;;12.82;;
74630;SDS011;63138;55.082;38.804;2023-09-18T04:21:45;19.83;;;12.00;;
74630;SDS011;63138;55.082;38.804;2023-09-18T04:24:12;17.98;;;11.35;;
74630;SDS011;63138;55.082;38.804;2023-09-18T04:26:37;20.45;;;12.55;;
74630;SDS011;63138;55.082;38.804;2023-09-18T04:29:05;19.95;;;11.23;;
74630;SDS011;63138;55.082;38.804;2023-09-18T04:31:31;16.98;;;10.45;;
74630;SDS011;63138;55.082;38.804;2023-09-18T04:33:57;17.83;;;11.57;;
74630;SDS011;63138;55.082;38.804;2023-09-18T04:36:23;19.80;;;12.88;;
74630;SDS011;63138;55.082;38.804;2023-09-18T04:38:50;18.77;;;11.40;;
74630;SDS011;63138;55.082;38.804;2023-09-18T04:41:16;16.27;;;9.73;;
74630;SDS011;63138;55.082;38.804;2023-09-18T04:43:42;17.07;;;10.63;;
74630;SDS011;63138;55.082;38.804;2023-09-18T04:46:08;20.05;;;10.70;;
74630;SDS011;63138;55.082;38.804;2023-09-18T04:48:34;15.95;;;11.20;;
74630;SDS011;63138;55.082;38.804;2023-09-18T04:51:02;21.13;;;11.43;;
74630;SDS011;63138;55.082;38.804;2023-09-18T04:53:30;21.05;;;12.18;;
74630;SDS011;63138;55.082;38.804;2023-09-18T04:55:56;20.00;;;11.77;;
74630;SDS011;63138;55.082;38.804;2023-09-18T04:58:22;22.50;;;12.13;;
74630;SDS011;63138;55.082;38.804;2023-09-18T05:00:55;21.88;;;12.10;;
74630;SDS011;63138;55.082;38.804;2023-09-18T05:03:23;18.20;;;11.25;;
74630;SDS011;63138;55.082;38.804;2023-09-18T05:05:49;18.83;;;11.17;;
74630;SDS011;63138;55.082;38.804;2023-09-18T05:08:15;19.98;;;11.43;;
74630;SDS011;63138;55.082;38.804;2023-09-18T05:10:41;16.80;;;9.73;;
74630;SDS011;63138;55.082;38.804;2023-09-18T05:13:09;17.08;;;9.95;;
74630;SDS011;63138;55.082;38.804;2023-09-18T05:15:35;19.43;;;10.37;;
74630;SDS011;63138;55.082;38.804;2023-09-18T05:18:01;16.00;;;8.88;;
74630;SDS011;63138;55.082;38.804;2023-09-18T05:20:29;18.52;;;10.10;;
74630;SDS011;63138;55.082;38.804;2023-09-18T05:22:56;17.85;;;10.05;;
74630;SDS011;63138;55.082;38.804;2023-09-18T05:25:23;18.05;;;10.10;;
74630;SDS011;63138;55.082;38.804;2023-09-18T05:30:49;20.05;;;11.40;;
74630;SDS011;63138;55.082;38.804;2023-09-18T05:33:15;18.70;;;11.23;;
74630;SDS011;63138;55.082;38.804;2023-09-18T05:35:41;20.73;;;12.33;;
74630;SDS011;63138;55.082;38.804;2023-09-18T05:38:09;16.40;;;10.38;;
74630;SDS011;63138;55.082;38.804;2023-09-18T05:40:39;20.38;;;11.43;;
74630;SDS011;63138;55.082;38.804;2023-09-18T05:43:06;20.75;;;11.15;;
74630;SDS011;63138;55.082;38.804;2023-09-18T05:45:32;22.07;;;11.10;;
74630;SDS011;63138;55.082;38.804;2023-09-18T05:48:00;16.25;;;10.10;;
74630;SDS011;63138;55.082;38.804;2023-09-18T05:50:33;15.98;;;10.55;;
74630;SDS011;63138;55.082;38.804;2023-09-18T05:53:00;19.58;;;11.05;;
74630;SDS011;63138;55.082;38.804;2023-09-18T05:55:35;22.80;;;11.95;;
74630;SDS011;63138;55.082;38.804;2023-09-18T05:58:01;25.00;;;11.37;;
74630;SDS011;63138;55.082;38.804;2023-09-18T06:00:30;21.15;;;10.95;;
74630;SDS011;63138;55.082;38.804;2023-09-18T06:02:56;28.35;;;14.88;;
74630;SDS011;63138;55.082;38.804;2023-09-18T06:05:22;29.07;;;14.77;;
74630;SDS011;63138;55.082;38.804;2023-09-18T06:07:48;22.38;;;13.18;;
74630;SDS011;63138;55.082;38.804;2023-09-18T06:10:14;25.50;;;13.30;;
74630;SDS011;63138;55.082;38.804;2023-09-18T06:12:44;22.05;;;12.00;;
74630;SDS011;63138;55.082;38.804;2023-09-18T06:15:13;15.02;;;10.05;;
74630;SDS011;63138;55.082;38.804;2023-09-18T06:17:40;17.13;;;9.40;;
74630;SDS011;63138;55.082;38.804;2023-09-18T06:20:08;15.43;;;8.35;;
74630;SDS011;63138;55.082;38.804;2023-09-18T06:22:35;11.30;;;7.53;;
74630;SDS011;63138;55.082;38.804;2023-09-18T06:25:05;13.35;;;8.32;;
74630;SDS011;63138;55.082;38.804;2023-09-18T06:27:33;10.00;;;7.57;;
74630;SDS011;63138;55.082;38.804;2023-09-18T06:30:01;11.73;;;7.87;;
74630;SDS011;63138;55.082;38.804;2023-09-18T06:32:45;10.10;;;7.45;;
74630;SDS011;63138;55.082;38.804;2023-09-18T06:35:11;11.55;;;7.70;;
74630;SDS011;63138;55.082;38.804;2023-09-18T06:37:38;10.60;;;7.70;;
74630;SDS011;63138;55.082;38.804;2023-09-18T06:40:03;9.23;;;7.95;;
74630;SDS011;63138;55.082;38.804;2023-09-18T06:42:31;10.30;;;8.25;;
74630;SDS011;63138;55.082;38.804;2023-09-18T06:44:57;9.67;;;7.03;;
74630;SDS011;63138;55.082;38.804;2023-09-18T06:47:24;11.45;;;7.82;;
74630;SDS011;63138;55.082;38.804;2023-09-18T06:49:50;12.38;;;7.80;;
74630;SDS011;63138;55.082;38.804;2023-09-18T06:52:17;10.25;;;7.05;;
74630;SDS011;63138;55.082;38.804;2023-09-18T06:54:43;12.33;;;8.03;;
74630;SDS011;63138;55.082;38.804;2023-09-18T06:57:09;11.52;;;8.30;;
74630;SDS011;63138;55.082;38.804;2023-09-18T06:59:35;11.30;;;8.07;;
74630;SDS011;63138;55.082;38.804;2023-09-18T07:02:01;9.77;;;8.10;;
74630;SDS011;63138;55.082;38.804;2023-09-18T07:04:28;10.43;;;7.73;;
74630;SDS011;63138;55.082;38.804;2023-09-18T07:06:54;20.67;;;7.50;;
74630;SDS011;63138;55.082;38.804;2023-09-18T07:09:23;12.52;;;8.50;;
74630;SDS011;63138;55.082;38.804;2023-09-18T07:11:51;11.13;;;7.15;;
74630;SDS011;63138;55.082;38.804;2023-09-18T07:14:17;11.13;;;7.65;;
74630;SDS011;63138;55.082;38.804;2023-09-18T07:16:43;9.40;;;7.50;;
74630;SDS011;63138;55.082;38.804;2023-09-18T07:19:09;12.80;;;7.80;;
74630;SDS011;63138;55.082;38.804;2023-09-18T07:21:37;10.60;;;7.65;;
74630;SDS011;63138;55.082;38.804;2023-09-18T07:24:05;12.87;;;7.30;;
74630;SDS011;63138;55.082;38.804;2023-09-18T07:26:31;10.50;;;7.80;;
74630;SDS011;63138;55.082;38.804;2023-09-18T07:28:57;11.02;;;8.43;;
74630;SDS011;63138;55.082;38.804;2023-09-18T07:31:22;13.97;;;8.03;;
74630;SDS011;63138;55.082;38.804;2023-09-18T07:33:48;10.35;;;8.50;;
74630;SDS011;63138;55.082;38.804;2023-09-18T07:36:14;14.87;;;7.40;;
74630;SDS011;63138;55.082;38.804;2023-09-18T07:38:40;9.85;;;7.10;;
74630;SDS011;63138;55.082;38.804;2023-09-18T07:41:08;9.20;;;7.00;;
74630;SDS011;63138;55.082;38.804;2023-09-18T07:43:34;9.77;;;7.35;;
74630;SDS011;63138;55.082;38.804;2023-09-18T07:46:01;12.80;;;7.65;;
74630;SDS011;63138;55.082;38.804;2023-09-18T07:48:27;10.50;;;6.97;;
74630;SDS011;63138;55.082;38.804;2023-09-18T07:50:53;10.23;;;7.88;;
74630;SDS011;63138;55.082;38.804;2023-09-18T07:53:21;9.55;;;7.30;;
74630;SDS011;63138;55.082;38.804;2023-09-18T07:55:47;11.13;;;8.20;;
74630;SDS011;63138;55.082;38.804;2023-09-18T07:58:20;10.57;;;8.23;;
74630;SDS011;63138;55.082;38.804;2023-09-18T08:00:46;10.57;;;7.43;;
74630;SDS011;63138;55.082;38.804;2023-09-18T08:03:13;11.52;;;7.82;;
74630;SDS011;63138;55.082;38.804;2023-09-18T08:05:39;9.57;;;6.73;;
74630;SDS011;63138;55.082;38.804;2023-09-18T08:08:05;8.45;;;7.55;;
74630;SDS011;63138;55.082;38.804;2023-09-18T08:10:36;10.15;;;7.80;;
74630;SDS011;63138;55.082;38.804;2023-09-18T08:13:03;9.73;;;7.45;;
74630;SDS011;63138;55.082;38.804;2023-09-18T08:15:29;9.15;;;7.68;;
74630;SDS011;63138;55.082;38.804;2023-09-18T08:17:55;9.00;;;7.10;;
74630;SDS011;63138;55.082;38.804;2023-09-18T08:20:21;10.45;;;7.32;;
74630;SDS011;63138;55.082;38.804;2023-09-18T08:22:47;10.70;;;7.20;;
74630;SDS011;63138;55.082;38.804;2023-09-18T08:25:13;10.40;;;8.02;;
74630;SDS011;63138;55.082;38.804;2023-09-18T08:27:39;9.15;;;7.55;;
74630;SDS011;63138;55.082;38.804;2023-09-18T08:30:12;8.90;;;7.32;;
74630;SDS011;63138;55.082;38.804;2023-09-18T08:32:39;12.30;;;7.83;;
74630;SDS011;63138;55.082;38.804;2023-09-18T08:35:06;8.00;;;7.20;;
74630;SDS011;63138;55.082;38.804;2023-09-18T08:37:32;10.80;;;7.47;;
74630;SDS011;63138;55.082;38.804;2023-09-18T08:39:58;10.13;;;7.50;;
74630;SDS011;63138;55.082;38.804;2023-09-18T08:42:27;9.20;;;7.65;;
74630;SDS011;63138;55.082;38.804;2023-09-18T08:44:56;10.27;;;8.30;;
74630;SDS011;63138;55.082;38.804;2023-09-18T08:47:25;11.60;;;8.40;;
74630;SDS011;63138;55.082;38.804;2023-09-18T08:49:51;10.40;;;7.57;;
74630;SDS011;63138;55.082;38.804;2023-09-18T08:52:18;9.88;;;8.15;;
74630;SDS011;63138;55.082;38.804;2023-09-18T08:54:45;9.18;;;7.43;;
74630;SDS011;63138;55.082;38.804;2023-09-18T08:57:11;9.70;;;7.70;;
74630;SDS011;63138;55.082;38.804;2023-09-18T08:59:37;11.57;;;8.27;;
74630;SDS011;63138;55.082;38.804;2023-09-18T09:02:05;8.82;;;6.88;;
74630;SDS011;63138;55.082;38.804;2023-09-18T09:04:31;11.25;;;7.25;;
74630;SDS011;63138;55.082;38.804;2023-09-18T09:06:57;9.90;;;6.80;;
74630;SDS011;63138;55.082;38.804;2023-09-18T09:09:25;8.90;;;7.03;;
74630;SDS011;63138;55.082;38.804;2023-09-18T09:11:55;9.15;;;7.70;;
74630;SDS011;63138;55.082;38.804;2023-09-18T09:14:21;10.07;;;7.50;;
74630;SDS011;63138;55.082;38.804;2023-09-18T09:16:53;10.50;;;7.00;;
74630;SDS011;63138;55.082;38.804;2023-09-18T09:19:33;10.03;;;7.23;;
74630;SDS011;63138;55.082;38.804;2023-09-18T09:22:04;9.15;;;7.28;;
74630;SDS011;63138;55.082;38.804;2023-09-18T09:24:37;9.52;;;7.20;;
74630;SDS011;63138;55.082;38.804;2023-09-18T09:27:07;9.45;;;7.63;;
74630;SDS011;63138;55.082;38.804;2023-09-18T09:29:34;9.20;;;7.10;;
74630;SDS011;63138;55.082;38.804;2023-09-18T09:32:16;11.27;;;7.60;;
74630;SDS011;63138;55.082;38.804;2023-09-18T09:34:44;10.15;;;6.88;;
74630;SDS011;63138;55.082;38.804;2023-09-18T09:37:11;12.45;;;7.13;;
74630;SDS011;63138;55.082;38.804;2023-09-18T09:39:51;8.77;;;6.88;;
74630;SDS011;63138;55.082;38.804;2023-09-18T09:42:20;9.57;;;7.30;;
74630;SDS011;63138;55.082;38.804;2023-09-18T09:45:07;8.60;;;7.00;;
74630;SDS011;63138;55.082;38.804;2023-09-18T09:47:37;10.02;;;6.22;;
74630;SDS011;63138;55.082;38.804;2023-09-18T09:50:21;10.95;;;7.15;;
74630;SDS011;63138;55.082;38.804;2023-09-18T09:52:48;8.77;;;6.15;;
74630;SDS011;63138;55.082;38.804;2023-09-18T09:55:23;10.55;;;5.82;;
74630;SDS011;63138;55.082;38.804;2023-09-18T09:58:09;11.93;;;7.50;;
74630;SDS011;63138;55.082;38.804;2023-09-18T10:00:46;9.23;;;7.20;;
74630;SDS011;63138;55.082;38.804;2023-09-18T10:03:18;8.15;;;6.57;;
74630;SDS011;63138;55.082;38.804;2023-09-18T10:05:46;14.57;;;6.78;;
74630;SDS011;63138;55.082;38.804;2023-09-18T10:08:21;10.80;;;6.43;;
74630;SDS011;63138;55.082;38.804;2023-09-18T10:10:49;7.87;;;6.27;;
74630;SDS011;63138;55.082;38.804;2023-09-18T10:13:32;9.05;;;6.57;;
74630;SDS011;63138;55.082;38.804;2023-09-18T10:16:01;8.85;;;6.00;;
74630;SDS011;63138;55.082;38.804;2023-09-18T10:20:59;10.07;;;5.57;;
74630;SDS011;63138;55.082;38.804;2023-09-18T10:23:50;11.50;;;6.43;;
74630;SDS011;63138;55.082;38.804;2023-09-18T10:26:39;17.92;;;7.18;;
74630;SDS011;63138;55.082;38.804;2023-09-18T10:29:12;9.43;;;6.18;;
74630;SDS011;63138;55.082;38.804;2023-09-18T10:31:39;8.95;;;6.45;;
74630;SDS011;63138;55.082;38.804;2023-09-18T10:34:07;8.73;;;5.43;;
74630;SDS011;63138;55.082;38.804;2023-09-18T10:36:34;8.68;;;5.15;;
74630;SDS011;63138;55.082;38.804;2023-09-18T10:39:02;7.63;;;5.32;;
74630;SDS011;63138;55.082;38.804;2023-09-18T10:41:33;10.13;;;6.07;;
74630;SDS011;63138;55.082;38.804;2023-09-18T10:44:00;8.45;;;5.90;;
74630;SDS011;63138;55.082;38.804;2023-09-18T10:46:29;9.20;;;5.53;;
74630;SDS011;63138;55.082;38.804;2023-09-18T10:48:55;9.13;;;6.10;;
74630;SDS011;63138;55.082;38.804;2023-09-18T10:51:23;8.27;;;5.43;;
74630;SDS011;63138;55.082;38.804;2023-09-18T10:53:50;9.82;;;5.93;;
74630;SDS011;63138;55.082;38.804;2023-09-18T10:56:20;10.98;;;6.32;;
74630;SDS011;63138;55.082;38.804;2023-09-18T10:58:46;10.33;;;6.00;;
74630;SDS011;63138;55.082;38.804;2023-09-18T11:01:40;8.30;;;5.55;;
74630;SDS011;63138;55.082;38.804;2023-09-18T11:04:06;8.88;;;6.45;;
74630;SDS011;63138;55.082;38.804;2023-09-18T11:09:28;8.95;;;5.93;;
74630;SDS011;63138;55.082;38.804;2023-09-18T11:20:07;10.57;;;7.07;;
74630;SDS011;63138;55.082;38.804;2023-09-18T11:22:49;10.65;;;7.10;;
74630;SDS011;63138;55.082;38.804;2023-09-18T11:25:45;9.75;;;6.93;;
74630;SDS011;63138;55.082;38.804;2023-09-18T11:28:14;11.20;;;7.05;;
74630;SDS011;63138;55.082;38.804;2023-09-18T11:30:51;10.38;;;7.50;;
74630;SDS011;63138;55.082;38.804;2023-09-18T11:36:13;9.85;;;6.68;;
74630;SDS011;63138;55.082;38.804;2023-09-18T11:38:59;12.45;;;6.95;;
74630;SDS011;63138;55.082;38.804;2023-09-18T11:41:30;9.35;;;6.70;;
74630;SDS011;63138;55.082;38.804;2023-09-18T11:46:46;13.47;;;6.93;;
74630;SDS011;63138;55.082;38.804;2023-09-18T11:49:20;10.85;;;7.30;;
74630;SDS011;63138;55.082;38.804;2023-09-18T11:52:09;14.82;;;7.95;;
74630;SDS011;63138;55.082;38.804;2023-09-18T11:54:39;11.68;;;7.07;;
74630;SDS011;63138;55.082;38.804;2023-09-18T11:57:05;10.93;;;6.93;;
74630;SDS011;63138;55.082;38.804;2023-09-18T11:59:39;12.33;;;7.30;;
74630;SDS011;63138;55.082;38.804;2023-09-18T12:02:09;13.32;;;7.80;;
74630;SDS011;63138;55.082;38.804;2023-09-18T12:04:35;9.98;;;5.80;;
74630;SDS011;63138;55.082;38.804;2023-09-18T12:07:04;12.38;;;8.25;;
74630;SDS011;63138;55.082;38.804;2023-09-18T12:09:31;13.75;;;8.32;;
74630;SDS011;63138;55.082;38.804;2023-09-18T12:11:59;11.27;;;7.47;;
74630;SDS011;63138;55.082;38.804;2023-09-18T12:14:32;11.50;;;7.93;;
74630;SDS011;63138;55.082;38.804;2023-09-18T12:16:59;13.50;;;8.43;;
74630;SDS011;63138;55.082;38.804;2023-09-18T12:19:30;14.40;;;7.25;;
74630;SDS011;63138;55.082;38.804;2023-09-18T12:21:57;14.20;;;8.00;;
74630;SDS011;63138;55.082;38.804;2023-09-18T12:24:24;12.17;;;7.50;;
74630;SDS011;63138;55.082;38.804;2023-09-18T12:26:51;12.00;;;7.97;;
74630;SDS011;63138;55.082;38.804;2023-09-18T12:29:18;14.40;;;8.05;;
74630;SDS011;63138;55.082;38.804;2023-09-18T12:31:45;12.02;;;8.02;;
74630;SDS011;63138;55.082;38.804;2023-09-18T12:34:29;11.13;;;7.00;;
74630;SDS011;63138;55.082;38.804;2023-09-18T12:36:56;12.20;;;7.18;;
74630;SDS011;63138;55.082;38.804;2023-09-18T12:39:22;13.90;;;7.50;;
74630;SDS011;63138;55.082;38.804;2023-09-18T12:41:48;9.23;;;6.93;;
74630;SDS011;63138;55.082;38.804;2023-09-18T12:44:15;14.50;;;7.57;;
74630;SDS011;63138;55.082;38.804;2023-09-18T12:46:42;9.63;;;6.82;;
74630;SDS011;63138;55.082;38.804;2023-09-18T12:49:34;10.15;;;6.93;;
74630;SDS011;63138;55.082;38.804;2023-09-18T12:52:00;11.73;;;6.90;;
74630;SDS011;63138;55.082;38.804;2023-09-18T12:54:41;16.48;;;8.13;;
74630;SDS011;63138;55.082;38.804;2023-09-18T12:57:11;12.18;;;7.45;;
74630;SDS011;63138;55.082;38.804;2023-09-18T12:59:59;14.23;;;7.82;;
74630;SDS011;63138;55.082;38.804;2023-09-18T13:02:29;13.63;;;8.50;;
74630;SDS011;63138;55.082;38.804;2023-09-18T13:04:55;16.63;;;7.90;;
74630;SDS011;63138;55.082;38.804;2023-09-18T13:07:22;13.95;;;7.13;;
74630;SDS011;63138;55.082;38.804;2023-09-18T13:12:39;13.40;;;7.57;;
74630;SDS011;63138;55.082;38.804;2023-09-18T13:15:06;16.38;;;8.25;;
74630;SDS011;63138;55.082;38.804;2023-09-18T13:17:41;14.53;;;8.10;;
74630;SDS011;63138;55.082;38.804;2023-09-18T13:20:12;11.50;;;7.55;;
74630;SDS011;63138;55.082;38.804;2023-09-18T13:22:40;11.13;;;7.15;;
74630;SDS011;63138;55.082;38.804;2023-09-18T13:25:08;13.43;;;7.93;;
74630;SDS011;63138;55.082;38.804;2023-09-18T13:27:36;14.80;;;8.10;;
74630;SDS011;63138;55.082;38.804;2023-09-18T13:30:04;13.83;;;7.90;;
74630;SDS011;63138;55.082;38.804;2023-09-18T13:32:35;15.57;;;7.70;;
74630;SDS011;63138;55.082;38.804;2023-09-18T13:35:04;15.55;;;7.72;;
74630;SDS011;63138;55.082;38.804;2023-09-18T13:37:34;17.85;;;8.95;;
74630;SDS011;63138;55.082;38.804;2023-09-18T13:40:00;16.42;;;8.20;;
74630;SDS011;63138;55.082;38.804;2023-09-18T13:42:28;14.87;;;7.97;;
74630;SDS011;63138;55.082;38.804;2023-09-18T13:44:58;14.68;;;8.95;;
74630;SDS011;63138;55.082;38.804;2023-09-18T13:47:29;13.93;;;8.32;;
74630;SDS011;63138;55.082;38.804;2023-09-18T13:49:54;16.73;;;8.37;;
74630;SDS011;63138;55.082;38.804;2023-09-18T13:52:31;14.53;;;8.83;;
74630;SDS011;63138;55.082;38.804;2023-09-18T13:54:59;18.15;;;8.77;;
74630;SDS011;63138;55.082;38.804;2023-09-18T13:57:25;14.40;;;8.60;;
74630;SDS011;63138;55.082;38.804;2023-09-18T13:59:51;12.90;;;8.27;;
74630;SDS011;63138;55.082;38.804;2023-09-18T14:02:17;15.20;;;8.03;;
74630;SDS011;63138;55.082;38.804;2023-09-18T14:04:44;16.05;;;8.30;;
74630;SDS011;63138;55.082;38.804;2023-09-18T14:07:11;15.05;;;8.10;;
74630;SDS011;63138;55.082;38.804;2023-09-18T14:09:38;17.88;;;9.07;;
74630;SDS011;63138;55.082;38.804;2023-09-18T14:12:04;14.90;;;8.05;;
74630;SDS011;63138;55.082;38.804;2023-09-18T14:14:34;14.17;;;8.50;;
74630;SDS011;63138;55.082;38.804;2023-09-18T14:17:01;15.38;;;8.25;;
74630;SDS011;63138;55.082;38.804;2023-09-18T14:19:29;15.38;;;8.10;;
74630;SDS011;63138;55.082;38.804;2023-09-18T14:21:55;18.05;;;8.45;;
74630;SDS011;63138;55.082;38.804;2023-09-18T14:24:21;12.93;;;8.43;;
74630;SDS011;63138;55.082;38.804;2023-09-18T14:26:53;13.07;;;8.30;;
74630;SDS011;63138;55.082;38.804;2023-09-18T14:29:21;13.52;;;8.30;;
74630;SDS011;63138;55.082;38.804;2023-09-18T14:31:47;11.48;;;7.35;;
74630;SDS011;63138;55.082;38.804;2023-09-18T14:34:13;12.93;;;7.80;;
74630;SDS011;63138;55.082;38.804;2023-09-18T14:36:39;12.83;;;7.80;;
74630;SDS011;63138;55.082;38.804;2023-09-18T14:39:06;11.10;;;8.27;;
74630;SDS011;63138;55.082;38.804;2023-09-18T14:41:36;12.05;;;7.65;;
74630;SDS011;63138;55.082;38.804;2023-09-18T14:44:03;15.52;;;9.05;;
74630;SDS011;63138;55.082;38.804;2023-09-18T14:46:30;13.00;;;7.93;;
74630;SDS011;63138;55.082;38.804;2023-09-18T14:48:59;11.97;;;6.87;;
74630;SDS011;63138;55.082;38.804;2023-09-18T14:51:26;13.57;;;8.18;;
74630;SDS011;63138;55.082;38.804;2023-09-18T14:53:57;12.95;;;7.25;;
74630;SDS011;63138;55.082;38.804;2023-09-18T14:56:24;12.18;;;7.82;;